Aeroporto :
LOGIN :

Iscrizione | Disclaimer

   EN    FR    IT 

 










Sommario :    VFR   VFR Marginale   IFR   IFR Intensivo   IFR Molto Intensivo
Visibilità : 
Base nubi : 
>= 8 km
>= 3000ft
5 / 8 km
1000 / 3000 ft
1500m / 5 km
500 / 1000 ft
800 / 1500m
200 / 500 ft
< 800m
< 200 ft
Simboli :   Temporali  Nebbia  Neve Forte  Precipitazioni Forti  Vento > 20 kt
SIGMETs :   Varie  Temporali  Ghiacco  Turbolenza  Onda orograficha  Ceneri Vulcaniche






- Altitudine del aeroporto : 80 ft
- Codice IATA : LPL


EGGP - Liverpool John Lennon

ULTIMO METAR :
  • 190520Z 29002KT 7000 NSC 02/02 Q1041

METARs OBSOLETI :
  • 190450Z 26002KT 7000 NSC 02/02 Q1041
  • 190420Z 29002KT CAVOK 02/02 Q1041
  • 190350Z VRB01KT CAVOK 03/03 Q1040
  • 190320Z VRB03KT CAVOK 02/02 Q1040
  • 190250Z 33005KT CAVOK 04/03 Q1040

TAF TAF EGGP
Valido dal 19 a 06 ore il 20 a 06 ore UTC


190500Z 1906/2006 VRB04KT 9999 FEW030
TEMPO 1906/1914 6000
PROB30 1906/1911 0300 FG FZFG
PROB30
TEMPO 1911/1914 3000 BR BKN003
TEMPO 1917/2006 6000
PROB30 1921/2006 3000 BR MIFG
ATIS : +44 151 907 2000 (option 5 or ext 5150)
Met : +44 871 750 5150



MetMap, La meteo Aeronautica in un colpo d'occhio ! - Copyright ORBIFLY Dicembre 2007 - Disclaimer

ORBIFLY MET'MAP TEAM :

Programmazione e sviluppo : Alexandra Zaïnal
Concezione : Baudouin d'Aumeries
Aiuto per la programmazione : Marc-Olivier Méhu
Supporto tecnico e logistico : Manuel Goepfert
Aiuto per la traduzione : Arnaldo La Scala

Contatto : metmap@orbifly.com




FONTI E CREDITI :

   NOAA